Time;durP1;ratioP1;P1;durP2;ratioP2;P2;SDS_P1;SDS_P2;PMS_P1;PMS_P2;Temp;Humidity;BMP_temperature;BMP_pressure;BME280_temperature;BME280_humidity;BME280_pressure;Samples;Min_cycle;Max_cycle;Signal;HPM_P1;HPM_P2
2022/10/09 14:13:57;;;;;;;2.55;1.33;;;20.00;64.40;;;;;;5090423;28;20839;-40
2022/10/09 14:16:23;;;;;;;7.00;1.65;;;20.00;63.40;;;;;;5071833;28;20020;-40
2022/10/09 14:18:48;;;;;;;4.32;1.40;;;20.00;64.20;;;;;;5086427;28;20369;-40
2022/10/09 14:21:14;;;;;;;4.35;1.20;;;20.00;66.20;;;;;;5086377;28;20024;-40
2022/10/09 14:23:40;;;;;;;5.97;1.20;;;20.00;66.20;;;;;;5093360;28;20060;-40
2022/10/09 14:26:06;;;;;;;2.50;1.15;;;19.90;66.80;;;;;;5103608;28;20054;-40
2022/10/09 14:28:32;;;;;;;5.03;1.73;;;19.80;64.90;;;;;;5106445;28;20023;-40
2022/10/09 14:30:58;;;;;;;3.72;1.42;;;19.80;64.70;;;;;;5106366;28;20127;-41
2022/10/09 14:33:24;;;;;;;6.43;1.65;;;19.70;65.50;;;;;;5105930;28;20028;-40
2022/10/09 14:35:49;;;;;;;4.57;1.60;;;19.80;65.50;;;;;;5106337;28;20024;-41
2022/10/09 14:38:15;;;;;;;6.68;1.88;;;19.60;65.50;;;;;;5106170;28;20027;-40
2022/10/09 14:40:42;;;;;;;3.75;1.38;;;19.50;64.10;;;;;;5106370;28;20043;-41
2022/10/09 14:43:08;;;;;;;4.85;1.40;;;19.40;65.40;;;;;;5105935;28;20484;-40
2022/10/09 14:45:34;;;;;;;7.55;1.70;;;19.30;66.70;;;;;;5106143;28;20087;-40
2022/10/09 14:47:59;;;;;;;6.75;1.38;;;19.20;67.30;;;;;;5105872;28;20472;-40
2022/10/09 14:50:25;;;;;;;4.75;1.63;;;19.20;66.80;;;;;;5104815;28;20076;-40
2022/10/09 14:52:50;;;;;;;6.90;1.67;;;19.20;67.80;;;;;;5104893;28;20024;-40
2022/10/09 14:55:16;;;;;;;11.00;1.50;;;19.10;65.80;;;;;;5095363;28;20036;-41
2022/10/09 14:57:42;;;;;;;3.72;1.30;;;18.90;65.90;;;;;;5093441;28;20012;-41
2022/10/09 15:00:08;;;;;;;6.03;1.80;;;18.80;65.20;;;;;;5103399;28;20045;-41
2022/10/09 15:02:34;;;;;;;6.90;2.05;;;18.70;65.90;;;;;;5105407;28;20024;-40
2022/10/09 15:04:59;;;;;;;5.78;1.52;;;18.70;66.70;;;;;;5105605;28;20058;-41
2022/10/09 15:07:26;;;;;;;4.57;1.40;;;18.50;66.80;;;;;;5105788;28;20027;-39
2022/10/09 15:09:53;;;;;;;8.45;1.50;;;18.30;65.60;;;;;;5105449;28;20116;-41
2022/10/09 15:12:19;;;;;;;4.80;1.42;;;18.10;66.80;;;;;;5104958;28;20024;-39
2022/10/09 15:14:45;;;;;;;4.78;1.40;;;18.10;66.20;;;;;;5099243;28;20031;-40
2022/10/09 15:17:10;;;;;;;2.40;1.20;;;18.00;66.60;;;;;;5064253;28;20539;-41
2022/10/09 15:19:36;;;;;;;9.85;2.08;;;17.80;67.00;;;;;;5065527;28;20436;-40
2022/10/09 15:22:02;;;;;;;6.85;1.40;;;17.60;66.60;;;;;;5069908;28;20114;-41
2022/10/09 15:24:28;;;;;;;3.63;1.52;;;17.60;67.60;;;;;;5083738;28;20075;-41
2022/10/09 15:26:53;;;;;;;6.18;1.23;;;17.60;67.30;;;;;;5087569;28;20394;-39
2022/10/09 15:29:19;;;;;;;3.45;1.30;;;17.60;67.40;;;;;;5091523;28;20036;-38
2022/10/09 15:31:44;;;;;;;6.22;1.42;;;17.60;68.40;;;;;;5080168;28;20021;-40
2022/10/09 15:34:15;;;;;;;3.25;1.40;;;17.60;68.50;;;;;;5089348;28;20024;-42
2022/10/09 15:36:42;;;;;;;5.75;1.55;;;17.40;69.10;;;;;;5082971;28;20555;-40
2022/10/09 15:39:08;;;;;;;4.55;1.40;;;17.30;70.10;;;;;;5078705;28;20115;-39
2022/10/09 15:41:36;;;;;;;8.50;1.60;;;17.10;70.70;;;;;;5091284;28;20095;-41
2022/10/09 15:44:05;;;;;;;5.68;1.42;;;16.90;72.20;;;;;;5090628;28;20042;-40
2022/10/09 15:46:31;;;;;;;2.85;1.30;;;16.80;72.00;;;;;;5090095;28;20024;-40
2022/10/09 15:48:56;;;;;;;4.80;1.13;;;16.80;73.00;;;;;;5077118;28;20017;-41
2022/10/09 15:51:22;;;;;;;4.88;1.83;;;16.60;75.30;;;;;;5070314;28;20423;-40
2022/10/09 15:53:50;;;;;;;5.85;1.70;;;16.40;75.60;;;;;;5070143;28;20516;-40
2022/10/09 15:56:18;;;;;;;11.60;1.77;;;16.30;74.70;;;;;;5070959;28;20378;-41
2022/10/09 15:58:44;;;;;;;2.70;1.83;;;16.20;75.50;;;;;;5069874;28;20021;-41
2022/10/09 16:01:12;;;;;;;5.55;1.70;;;16.10;76.20;;;;;;5078921;28;20031;-41
2022/10/09 16:03:37;;;;;;;4.40;1.90;;;15.90;78.00;;;;;;5084272;28;20032;-40
2022/10/09 16:06:06;;;;;;;5.18;2.00;;;15.80;78.10;;;;;;5089930;28;20036;-39
2022/10/09 16:08:33;;;;;;;8.32;1.90;;;15.70;78.70;;;;;;5091358;28;20028;-41
2022/10/09 16:10:58;;;;;;;7.30;1.98;;;15.50;81.60;;;;;;5091035;28;20046;-41
2022/10/09 16:13:26;;;;;;;7.80;2.35;;;15.30;82.10;;;;;;5089771;28;20480;-40
2022/10/09 16:15:52;;;;;;;4.65;1.65;;;15.20;80.60;;;;;;5091167;28;20027;-42
2022/10/09 16:18:20;;;;;;;9.13;1.58;;;15.10;81.70;;;;;;5090119;28;20016;-42
2022/10/09 16:20:47;;;;;;;6.35;1.35;;;15.00;82.00;;;;;;5089693;28;20024;-40
2022/10/09 16:23:13;;;;;;;8.50;2.40;;;15.00;82.80;;;;;;5082338;28;20021;-39
2022/10/09 16:25:39;;;;;;;4.50;1.85;;;14.90;85.20;;;;;;5079673;28;20032;-41
2022/10/09 16:28:07;;;;;;;9.15;1.92;;;14.80;84.30;;;;;;5089610;28;20020;-40
2022/10/09 16:30:38;;;;;;;5.75;2.10;;;14.70;84.90;;;;;;5088948;28;20028;-39
2022/10/09 16:33:03;;;;;;;4.32;2.13;;;14.50;85.90;;;;;;5088440;28;20487;-37
2022/10/09 16:35:28;;;;;;;10.38;1.52;;;14.40;85.50;;;;;;5090042;28;20074;-37
2022/10/09 16:37:54;;;;;;;8.25;2.15;;;14.30;85.60;;;;;;5089383;28;20024;-41
2022/10/09 16:40:19;;;;;;;7.63;1.92;;;14.30;87.10;;;;;;5091089;28;20071;-37
2022/10/09 16:42:45;;;;;;;7.78;2.30;;;14.20;89.00;;;;;;5090353;28;20215;-37
2022/10/09 16:45:11;;;;;;;8.25;2.50;;;14.10;87.60;;;;;;5089630;28;20028;-37
2022/10/09 16:47:36;;;;;;;5.78;1.63;;;14.10;89.00;;;;;;5090881;28;20042;-38
2022/10/09 16:50:02;;;;;;;6.07;2.13;;;14.00;89.60;;;;;;5089752;28;20066;-40
2022/10/09 16:52:27;;;;;;;5.50;1.92;;;14.00;90.10;;;;;;5088966;28;20032;-39
2022/10/09 16:54:53;;;;;;;8.20;2.83;;;13.80;90.50;;;;;;5078831;28;20036;-38
2022/10/09 16:57:19;;;;;;;8.80;2.33;;;13.70;90.40;;;;;;5088604;28;20038;-38
2022/10/09 16:59:45;;;;;;;7.32;2.47;;;13.70;90.50;;;;;;5090943;28;20077;-38
2022/10/09 17:02:11;;;;;;;8.77;2.60;;;13.60;91.20;;;;;;5088824;28;20512;-38
2022/10/09 17:04:37;;;;;;;6.13;2.28;;;13.50;91.30;;;;;;5088499;28;20032;-37
2022/10/09 17:07:03;;;;;;;4.75;2.20;;;13.30;91.70;;;;;;5090817;28;20031;-39
2022/10/09 17:09:29;;;;;;;7.03;2.38;;;13.30;92.60;;;;;;5089013;28;20024;-42
2022/10/09 17:11:55;;;;;;;8.77;2.53;;;13.20;92.60;;;;;;5090626;28;20020;-41
2022/10/09 17:14:20;;;;;;;5.85;2.65;;;13.20;92.70;;;;;;5089826;28;20117;-40
2022/10/09 17:16:46;;;;;;;7.95;2.60;;;13.10;93.00;;;;;;5089283;28;20500;-42
2022/10/09 17:19:12;;;;;;;9.68;2.55;;;13.10;93.20;;;;;;5073419;28;20035;-41
2022/10/09 17:21:38;;;;;;;6.28;2.28;;;13.10;93.20;;;;;;5068732;28;20021;-39
2022/10/09 17:24:04;;;;;;;7.85;2.15;;;12.90;94.30;;;;;;5077194;28;20043;-40
2022/10/09 17:26:30;;;;;;;5.57;2.63;;;12.80;95.30;;;;;;5082964;28;20610;-40
2022/10/09 17:28:59;;;;;;;4.10;1.92;;;12.70;96.10;;;;;;5086889;28;20060;-40
2022/10/09 17:31:25;;;;;;;4.40;2.08;;;12.50;97.00;;;;;;5069756;28;20103;-39
2022/10/09 17:33:56;;;;;;;4.35;1.92;;;12.40;97.40;;;;;;5073163;28;20078;-40
2022/10/09 17:36:24;;;;;;;6.70;2.08;;;12.30;99.00;;;;;;5071809;28;20028;-40
2022/10/09 17:38:50;;;;;;;8.20;2.33;;;12.20;99.80;;;;;;5069649;28;20427;-40
2022/10/09 17:41:20;;;;;;;3.67;1.90;;;12.20;99.50;;;;;;5076015;28;20029;-38
2022/10/09 17:43:45;;;;;;;6.88;2.47;;;12.10;99.90;;;;;;5090292;28;20093;-39
2022/10/09 17:46:13;;;;;;;6.72;2.20;;;12.10;99.90;;;;;;5090131;28;20024;-40
2022/10/09 17:48:43;;;;;;;5.47;2.28;;;12.00;99.90;;;;;;5089997;28;20024;-40
2022/10/09 17:51:17;;;;;;;11.37;2.50;;;12.00;99.90;;;;;;5091255;28;20032;-40
2022/10/09 17:53:44;;;;;;;3.90;2.00;;;11.90;99.90;;;;;;5068593;28;20032;-41
2022/10/09 17:56:10;;;;;;;6.47;2.17;;;11.90;99.90;;;;;;5067882;28;20017;-40
2022/10/09 17:58:35;;;;;;;7.63;2.83;;;11.80;99.90;;;;;;5078582;28;20021;-39
2022/10/09 18:01:06;;;;;;;8.57;2.50;;;11.70;99.90;;;;;;5068806;28;20031;-40
2022/10/09 18:03:31;;;;;;;7.43;2.47;;;11.70;99.90;;;;;;5070176;28;20537;-39
2022/10/09 18:05:57;;;;;;;5.78;2.35;;;11.60;99.90;;;;;;5069242;28;20074;-40
2022/10/09 18:08:23;;;;;;;7.20;2.65;;;11.60;99.90;;;;;;5069504;28;20020;-40
2022/10/09 18:10:57;;;;;;;5.22;2.10;;;11.50;99.90;;;;;;5070026;28;20053;-40
2022/10/09 18:13:23;;;;;;;6.40;2.53;;;11.40;99.90;;;;;;5068180;28;20016;-40
2022/10/09 18:15:49;;;;;;;4.38;2.40;;;11.30;99.90;;;;;;5068202;28;20691;-40
2022/10/09 18:18:14;;;;;;;8.40;2.25;;;11.30;99.90;;;;;;5067049;28;20104;-39
2022/10/09 18:20:39;;;;;;;4.03;2.42;;;11.20;99.90;;;;;;5070111;28;20066;-40
2022/10/09 18:23:06;;;;;;;8.85;2.58;;;11.20;99.90;;;;;;5070639;28;20017;-40
2022/10/09 18:25:32;;;;;;;8.27;2.60;;;11.10;99.90;;;;;;5081444;28;20032;-42
2022/10/09 18:27:57;;;;;;;4.53;1.90;;;11.00;99.90;;;;;;5091052;28;20039;-43
2022/10/09 18:30:23;;;;;;;7.70;3.38;;;11.00;99.90;;;;;;5090215;28;20770;-40
2022/10/09 18:32:49;;;;;;;5.47;2.63;;;10.90;99.90;;;;;;5089963;28;20028;-40
2022/10/09 18:35:14;;;;;;;6.20;2.97;;;10.80;99.90;;;;;;5090937;28;20020;-41
2022/10/09 18:37:40;;;;;;;6.05;2.90;;;10.70;99.90;;;;;;5089580;28;20028;-39
2022/10/09 18:40:07;;;;;;;4.25;3.05;;;10.70;99.90;;;;;;5090695;28;20051;-40
2022/10/09 18:42:33;;;;;;;6.57;2.65;;;10.60;99.90;;;;;;5088757;28;20028;-41
2022/10/09 18:44:58;;;;;;;6.20;3.38;;;10.50;99.90;;;;;;5089627;28;20026;-41
2022/10/09 18:47:27;;;;;;;8.35;3.17;;;10.50;99.90;;;;;;5091015;28;20103;-45
2022/10/09 18:49:54;;;;;;;7.82;2.72;;;10.40;99.90;;;;;;5089714;28;20473;-40
2022/10/09 18:52:20;;;;;;;7.13;3.10;;;10.40;99.90;;;;;;5089392;28;20035;-42
2022/10/09 18:54:49;;;;;;;4.90;2.95;;;10.30;99.90;;;;;;5081458;28;20021;-40
2022/10/09 18:57:15;;;;;;;7.93;3.30;;;10.20;99.90;;;;;;5088364;28;20020;-39
2022/10/09 18:59:41;;;;;;;7.75;3.13;;;10.30;99.90;;;;;;5092817;28;20400;-40
2022/10/09 19:02:06;;;;;;;9.68;3.20;;;10.20;99.90;;;;;;5093706;28;20028;-40
2022/10/09 19:04:32;;;;;;;7.47;2.40;;;10.30;99.90;;;;;;5093839;28;20017;-40
2022/10/09 19:06:58;;;;;;;5.57;2.72;;;10.20;99.90;;;;;;5094412;28;20480;-40
2022/10/09 19:09:23;;;;;;;7.40;2.40;;;10.20;99.90;;;;;;5093075;28;20031;-41
2022/10/09 19:11:49;;;;;;;7.22;3.03;;;10.20;99.90;;;;;;5093996;28;20031;-39
2022/10/09 19:14:14;;;;;;;6.45;2.55;;;10.20;99.90;;;;;;5093300;28;20028;-40
2022/10/09 19:16:40;;;;;;;5.28;2.85;;;10.10;99.90;;;;;;5090244;28;20055;-42
2022/10/09 19:19:06;;;;;;;7.40;2.63;;;10.20;99.90;;;;;;5070085;28;20047;-40
2022/10/09 19:21:32;;;;;;;4.57;2.03;;;10.20;99.90;;;;;;5072223;28;20021;-42
2022/10/09 19:24:03;;;;;;;5.63;2.25;;;10.20;99.90;;;;;;5071932;28;20031;-41
2022/10/09 19:26:28;;;;;;;6.78;1.98;;;10.30;99.90;;;;;;5072612;28;20078;-40
2022/10/09 19:28:55;;;;;;;7.20;2.22;;;10.30;99.90;;;;;;5070981;28;20028;-40
2022/10/09 19:31:20;;;;;;;5.45;2.42;;;10.30;99.90;;;;;;5072943;28;20028;-41
2022/10/09 19:33:46;;;;;;;8.60;2.47;;;10.30;99.90;;;;;;5070688;28;20036;-41
2022/10/09 19:36:12;;;;;;;9.38;2.30;;;10.30;99.90;;;;;;5072847;28;20024;-41
2022/10/09 19:38:38;;;;;;;7.82;1.83;;;10.40;99.90;;;;;;5070868;28;20009;-40
2022/10/09 19:41:06;;;;;;;4.63;2.25;;;10.50;99.90;;;;;;5069994;28;20362;-39
2022/10/09 19:43:32;;;;;;;8.15;2.15;;;10.50;99.90;;;;;;5072090;28;20113;-39
2022/10/09 19:46:03;;;;;;;11.00;2.90;;;10.50;99.90;;;;;;5072730;28;20063;-41
2022/10/09 19:48:29;;;;;;;6.15;1.92;;;10.60;99.90;;;;;;5072726;28;20021;-41
2022/10/09 19:50:55;;;;;;;4.68;2.42;;;10.60;99.90;;;;;;5073309;28;20519;-41
2022/10/09 19:53:20;;;;;;;15.43;2.33;;;10.60;99.90;;;;;;5073186;28;20020;-40
2022/10/09 19:55:46;;;;;;;7.07;2.13;;;10.60;99.90;;;;;;5078215;28;20033;-41
2022/10/09 19:58:11;;;;;;;5.95;2.13;;;10.60;99.90;;;;;;5070765;28;20025;-40
2022/10/09 20:00:42;;;;;;;8.93;3.10;;;10.60;99.90;;;;;;5071057;28;20021;-40
2022/10/09 20:03:08;;;;;;;7.35;2.40;;;10.60;99.90;;;;;;5069672;28;20019;-40
2022/10/09 20:05:33;;;;;;;7.10;2.35;;;10.60;99.90;;;;;;5071702;28;20063;-40
2022/10/09 20:07:59;;;;;;;7.65;2.20;;;10.60;99.90;;;;;;5072987;28;20056;-41
2022/10/09 20:10:27;;;;;;;8.75;2.50;;;10.60;99.90;;;;;;5072674;28;20085;-40
2022/10/09 20:12:52;;;;;;;6.20;2.50;;;10.60;99.90;;;;;;5070777;28;20028;-40
2022/10/09 20:15:19;;;;;;;4.85;2.00;;;10.50;99.90;;;;;;5073032;28;20078;-41
2022/10/09 20:17:44;;;;;;;4.57;2.10;;;10.50;99.90;;;;;;5070840;28;20021;-39
2022/10/09 20:20:10;;;;;;;6.97;1.98;;;10.50;99.90;;;;;;5071696;28;20467;-40
2022/10/09 20:22:36;;;;;;;6.55;2.20;;;10.40;99.90;;;;;;5071979;28;20033;-39
2022/10/09 20:25:01;;;;;;;6.22;2.53;;;10.40;99.90;;;;;;5071130;28;20032;-40
2022/10/09 20:27:28;;;;;;;6.60;2.47;;;10.30;99.90;;;;;;5074024;28;20036;-39
2022/10/09 20:29:54;;;;;;;9.00;2.25;;;10.20;99.90;;;;;;5071949;28;20020;-40
2022/10/09 20:32:19;;;;;;;6.88;2.13;;;10.20;99.90;;;;;;5071489;28;20051;-40
2022/10/09 20:34:45;;;;;;;6.07;2.13;;;10.20;99.90;;;;;;5072102;28;20032;-40
2022/10/09 20:37:10;;;;;;;5.53;2.08;;;10.20;99.90;;;;;;5079005;28;20024;-41
2022/10/09 20:39:36;;;;;;;5.35;2.42;;;10.10;99.90;;;;;;5072089;28;20481;-40
2022/10/09 20:42:02;;;;;;;5.07;2.10;;;10.10;99.90;;;;;;5072170;28;20108;-41
2022/10/09 20:44:27;;;;;;;6.35;2.17;;;10.00;99.90;;;;;;5070937;28;20350;-41
2022/10/09 20:46:55;;;;;;;7.00;1.90;;;10.00;99.90;;;;;;5071573;28;20544;-41
2022/10/09 20:49:21;;;;;;;4.90;2.20;;;9.90;99.90;;;;;;5069675;28;20021;-41
2022/10/09 20:51:47;;;;;;;5.18;2.22;;;9.90;99.90;;;;;;5070497;28;20086;-42
2022/10/09 20:54:16;;;;;;;8.38;2.38;;;9.90;99.90;;;;;;5069859;28;20374;-43
2022/10/09 20:56:43;;;;;;;9.68;2.78;;;9.90;99.90;;;;;;5073517;28;20024;-42
2022/10/09 20:59:09;;;;;;;7.93;2.50;;;9.90;99.90;;;;;;5071986;28;20060;-42
2022/10/09 21:01:35;;;;;;;6.10;2.05;;;9.90;99.90;;;;;;5070065;28;20082;-43
2022/10/09 21:04:02;;;;;;;9.35;2.40;;;9.90;99.90;;;;;;5070752;28;20020;-44
2022/10/09 21:06:29;;;;;;;5.75;2.13;;;10.00;99.90;;;;;;5070864;28;20056;-49
2022/10/09 21:08:55;;;;;;;8.48;2.22;;;10.00;99.90;;;;;;5070354;28;20453;-44
2022/10/09 21:11:21;;;;;;;6.15;2.40;;;10.10;99.90;;;;;;5072975;28;20025;-43
2022/10/09 21:13:48;;;;;;;9.88;2.55;;;10.20;99.90;;;;;;5069138;28;20033;-44
2022/10/09 21:16:20;;;;;;;13.15;3.08;;;10.30;99.90;;;;;;5069780;28;20074;-47
2022/10/09 21:18:45;;;;;;;6.47;2.28;;;10.20;99.90;;;;;;5069940;28;20024;-44
2022/10/09 21:21:14;;;;;;;5.35;2.40;;;10.20;99.90;;;;;;5068145;28;20115;-43
2022/10/09 21:23:40;;;;;;;5.57;2.35;;;10.30;99.90;;;;;;5065458;28;20051;-43
2022/10/09 21:26:14;;;;;;;9.38;1.95;;;10.30;99.90;;;;;;5073636;28;20035;-42
2022/10/09 21:28:40;;;;;;;6.78;2.55;;;10.30;99.90;;;;;;5067531;28;20103;-46
2022/10/09 21:31:10;;;;;;;8.82;2.65;;;10.20;99.90;;;;;;5069776;28;20103;-43
2022/10/09 21:33:35;;;;;;;7.07;2.40;;;10.20;99.90;;;;;;5068985;28;20103;-45
2022/10/09 21:36:06;;;;;;;4.72;2.20;;;10.10;99.90;;;;;;5069454;28;20295;-46
2022/10/09 21:38:32;;;;;;;5.38;1.88;;;10.10;99.90;;;;;;5069420;28;20060;-46
2022/10/09 21:40:57;;;;;;;4.13;1.85;;;10.00;99.90;;;;;;5069269;28;20045;-45
2022/10/09 21:43:23;;;;;;;11.05;2.20;;;9.90;99.90;;;;;;5068685;28;20025;-43
2022/10/09 21:45:49;;;;;;;4.13;1.70;;;9.80;99.90;;;;;;5068127;28;20028;-43
2022/10/09 21:48:15;;;;;;;5.05;1.60;;;9.80;99.90;;;;;;5066723;28;20046;-44
2022/10/09 21:50:41;;;;;;;7.40;2.63;;;9.70;99.90;;;;;;5067519;28;20032;-44
2022/10/09 21:53:07;;;;;;;5.93;2.20;;;9.60;99.90;;;;;;5068858;28;20033;-42
2022/10/09 21:55:32;;;;;;;8.70;2.22;;;9.50;99.90;;;;;;5073306;28;20050;-45
2022/10/09 21:57:58;;;;;;;5.60;2.20;;;9.50;99.90;;;;;;5077652;28;20489;-42
2022/10/09 22:00:23;;;;;;;4.70;2.00;;;9.40;99.90;;;;;;5070778;28;20042;-43
2022/10/09 22:02:49;;;;;;;4.65;1.80;;;9.30;99.90;;;;;;5089648;28;20024;-44
2022/10/09 22:05:14;;;;;;;5.18;2.25;;;9.20;99.90;;;;;;5089585;28;20032;-42
2022/10/09 22:07:40;;;;;;;5.70;2.17;;;9.20;99.90;;;;;;5089559;28;20043;-46
2022/10/09 22:10:06;;;;;;;4.15;1.80;;;9.20;99.90;;;;;;5089395;28;20032;-45
2022/10/09 22:12:32;;;;;;;4.00;2.15;;;9.10;99.90;;;;;;5088917;28;20063;-47
2022/10/09 22:14:58;;;;;;;3.13;1.75;;;9.00;99.90;;;;;;5089547;28;20097;-42
2022/10/09 22:17:23;;;;;;;7.72;2.50;;;9.00;99.90;;;;;;5089596;28;20052;-45
2022/10/09 22:19:49;;;;;;;4.95;2.60;;;8.90;99.90;;;;;;5089434;28;20427;-44
2022/10/09 22:22:15;;;;;;;5.22;2.20;;;8.90;99.90;;;;;;5089476;28;20034;-44
2022/10/09 22:24:40;;;;;;;3.97;2.35;;;8.90;99.90;;;;;;5078467;28;20147;-43
2022/10/09 22:27:06;;;;;;;6.00;2.33;;;8.80;99.90;;;;;;5078499;28;20048;-44
2022/10/09 22:29:31;;;;;;;4.93;2.20;;;8.80;99.90;;;;;;5089705;28;20119;-43
2022/10/09 22:31:57;;;;;;;4.53;2.10;;;8.70;99.90;;;;;;5089717;28;20433;-43
2022/10/09 22:34:22;;;;;;;5.88;2.50;;;8.70;99.90;;;;;;5090921;28;20266;-45
2022/10/09 22:36:48;;;;;;;5.40;2.15;;;8.70;99.90;;;;;;5093484;28;20503;-43
2022/10/09 22:39:13;;;;;;;6.35;2.53;;;8.70;99.90;;;;;;5093202;28;20021;-45
2022/10/09 22:41:39;;;;;;;3.83;2.85;;;8.60;99.90;;;;;;5093396;28;20028;-43
2022/10/09 22:44:06;;;;;;;4.68;2.30;;;8.60;99.90;;;;;;5091830;28;20499;-44
2022/10/09 22:46:34;;;;;;;3.63;2.33;;;8.50;99.90;;;;;;5093579;28;20028;-43
2022/10/09 22:49:00;;;;;;;5.95;2.35;;;8.50;99.90;;;;;;5093204;28;20036;-42
2022/10/09 22:51:27;;;;;;;6.40;2.42;;;8.50;99.90;;;;;;5093164;28;20085;-42
2022/10/09 22:53:54;;;;;;;4.53;2.55;;;8.50;99.90;;;;;;5092612;28;20389;-44
2022/10/09 22:56:32;;;;;;;6.75;2.60;;;8.50;99.90;;;;;;5085228;28;20078;-44
2022/10/09 22:58:58;;;;;;;5.57;2.05;;;8.50;99.90;;;;;;5087865;28;20686;-42
2022/10/09 23:01:31;;;;;;;6.32;2.70;;;8.40;99.90;;;;;;5093060;28;20028;-44
2022/10/09 23:03:58;;;;;;;5.68;2.33;;;8.30;99.90;;;;;;5092685;28;20024;-43
2022/10/09 23:06:24;;;;;;;7.22;2.60;;;8.30;99.90;;;;;;5092926;28;20503;-44
2022/10/09 23:08:50;;;;;;;3.97;2.15;;;8.20;99.90;;;;;;5091539;28;20106;-44
2022/10/09 23:11:18;;;;;;;3.95;1.85;;;8.10;99.90;;;;;;5091637;28;20035;-43
2022/10/09 23:13:45;;;;;;;6.28;2.40;;;8.00;99.90;;;;;;5092244;28;20435;-42
2022/10/09 23:16:12;;;;;;;6.45;2.10;;;8.00;99.90;;;;;;5092842;28;20062;-43
2022/10/09 23:18:39;;;;;;;4.85;2.58;;;7.90;99.90;;;;;;5092788;28;20062;-46
2022/10/09 23:21:08;;;;;;;6.85;2.40;;;7.80;99.90;;;;;;5092994;28;20047;-44
2022/10/09 23:23:33;;;;;;;5.30;2.72;;;7.80;99.90;;;;;;5092330;28;20055;-46
2022/10/09 23:26:04;;;;;;;7.68;2.85;;;7.70;99.90;;;;;;5086428;28;20556;-44
2022/10/09 23:28:29;;;;;;;5.40;2.50;;;7.70;99.90;;;;;;5075874;28;20028;-45
2022/10/09 23:31:06;;;;;;;6.15;3.05;;;7.60;99.90;;;;;;5091109;28;20038;-40
2022/10/09 23:33:31;;;;;;;12.50;3.03;;;7.50;99.90;;;;;;5091857;28;20027;-42
2022/10/09 23:35:57;;;;;;;7.70;2.55;;;7.50;99.90;;;;;;5092494;28;20591;-43
2022/10/09 23:38:23;;;;;;;6.97;3.05;;;7.40;99.90;;;;;;5092601;28;20012;-42
2022/10/09 23:40:59;;;;;;;5.55;3.00;;;7.40;99.90;;;;;;5092137;28;20024;-45
2022/10/09 23:43:25;;;;;;;6.97;2.97;;;7.40;99.90;;;;;;5092362;28;20028;-44
2022/10/09 23:45:53;;;;;;;5.07;2.78;;;7.30;99.90;;;;;;5091528;28;20051;-42
2022/10/09 23:48:19;;;;;;;5.97;2.80;;;7.30;99.90;;;;;;5091007;28;20948;-43
2022/10/09 23:50:47;;;;;;;6.80;2.85;;;7.30;99.90;;;;;;5083849;28;20028;-43
2022/10/09 23:53:13;;;;;;;5.38;2.70;;;7.30;99.90;;;;;;5091620;28;20236;-46
2022/10/09 23:55:38;;;;;;;7.72;3.17;;;7.30;99.90;;;;;;5089918;28;20110;-44
2022/10/09 23:58:04;;;;;;;7.10;2.60;;;7.20;99.90;;;;;;5080582;28;20028;-42
